Time,TemperatureF,DewpointF,PressureIn,WindDirection,WindDirectionDegrees,WindSpeedMPH,WindSpeedGustMPH,Humidity,HourlyPrecipIn,Conditions,Clouds,dailyrainin,SoftwareType,DateUTC
2013-01-20 00:03:00,41.5,39.1,30.01,NE,45,0.0,-999.0,91,-99.99,,,0.00,Acu-Link.com,2013-01-20 05:03:00,
2013-01-20 00:18:00,41.5,39.1,30.00,NE,45,0.0,-999.0,91,-99.99,,,0.00,Acu-Link.com,2013-01-20 05:18:00,
2013-01-20 00:34:00,41.4,39.3,29.99,NE,45,0.0,-999.0,92,-99.99,,,0.00,Acu-Link.com,2013-01-20 05:34:00,
2013-01-20 00:49:00,40.6,39.3,29.99,East,90,0.0,-999.0,95,-99.99,,,0.00,Acu-Link.com,2013-01-20 05:49:00,
2013-01-20 01:04:00,40.6,39.0,29.98,NE,45,0.0,-999.0,94,-99.99,,,0.00,Acu-Link.com,2013-01-20 06:04:00,
2013-01-20 01:19:00,40.5,38.6,29.99,SE,135,0.0,-999.0,93,-99.99,,,0.00,Acu-Link.com,2013-01-20 06:19:00,
2013-01-20 01:34:00,39.9,39.4,29.99,East,90,0.0,-999.0,98,-99.99,,,0.00,Acu-Link.com,2013-01-20 06:34:00,
2013-01-20 01:49:00,39.9,39.1,29.98,East,90,0.0,-999.0,97,-99.99,,,0.00,Acu-Link.com,2013-01-20 06:49:00,
2013-01-20 02:04:00,39.9,38.9,29.98,WSW,247,0.0,-999.0,96,-99.99,,,0.00,Acu-Link.com,2013-01-20 07:04:00,
2013-01-20 02:19:00,39.6,39.1,29.98,ENE,67,0.0,-999.0,98,-99.99,,,0.00,Acu-Link.com,2013-01-20 07:19:00,
2013-01-20 02:34:00,39.6,38.8,29.97,West,270,0.0,-999.0,97,-99.99,,,0.00,Acu-Link.com,2013-01-20 07:34:00,
2013-01-20 02:50:00,39.6,38.8,29.97,West,270,0.0,-999.0,97,-99.99,,,0.00,Acu-Link.com,2013-01-20 07:50:00,
2013-01-20 03:05:00,39.4,38.9,29.98,NE,45,0.0,-999.0,98,-99.99,,,0.00,Acu-Link.com,2013-01-20 08:05:00,
2013-01-20 03:20:00,39.2,38.4,29.98,WNW,292,0.0,-999.0,97,-99.99,,,0.00,Acu-Link.com,2013-01-20 08:20:00,
2013-01-20 03:35:00,39.0,38.5,29.97,WSW,247,0.0,-999.0,98,-99.99,,,0.00,Acu-Link.com,2013-01-20 08:35:00,
2013-01-20 03:50:00,38.7,37.9,29.98,WSW,247,0.0,-999.0,97,-99.99,,,0.00,Acu-Link.com,2013-01-20 08:50:00,
2013-01-20 04:15:00,38.5,38.0,29.97,SW,225,0.0,-999.0,98,-99.99,,,0.00,Acu-Link.com,2013-01-20 09:15:00,
2013-01-20 04:30:00,38.1,37.6,29.96,NE,45,0.0,-999.0,98,-99.99,,,0.00,Acu-Link.com,2013-01-20 09:30:00,
2013-01-20 04:45:00,37.9,37.4,29.97,SW,225,0.0,-999.0,98,-99.99,,,0.00,Acu-Link.com,2013-01-20 09:45:00,
2013-01-20 05:00:00,37.8,37.3,29.97,NW,315,0.0,-999.0,98,-99.99,,,0.00,Acu-Link.com,2013-01-20 10:00:00,
2013-01-20 05:15:00,37.6,37.1,29.97,East,90,0.0,-999.0,98,-99.99,,,0.00,Acu-Link.com,2013-01-20 10:15:00,
2013-01-20 05:30:00,37.6,37.1,29.97,NE,45,0.0,-999.0,98,-99.99,,,0.00,Acu-Link.com,2013-01-20 10:30:00,
2013-01-20 05:45:00,37.6,37.3,29.98,NE,45,0.0,-999.0,99,-99.99,,,0.00,Acu-Link.com,2013-01-20 10:45:00,
2013-01-20 06:00:00,37.4,37.1,29.97,NE,45,0.0,-999.0,99,-99.99,,,0.00,Acu-Link.com,2013-01-20 11:00:00,
2013-01-20 06:16:00,37.4,37.1,29.97,West,270,0.0,-999.0,99,-99.99,,,0.00,Acu-Link.com,2013-01-20 11:16:00,
2013-01-20 06:31:00,37.2,36.9,29.98,SW,225,0.0,-999.0,99,-99.99,,,0.00,Acu-Link.com,2013-01-20 11:31:00,
2013-01-20 06:46:00,36.9,36.6,29.98,WSW,247,0.0,-999.0,99,-99.99,,,0.00,Acu-Link.com,2013-01-20 11:46:00,
2013-01-20 07:01:00,36.7,36.4,29.98,South,180,0.0,-999.0,99,-99.99,,,0.00,Acu-Link.com,2013-01-20 12:01:00,
2013-01-20 07:16:00,36.7,36.4,29.98,SSW,202,0.0,-999.0,99,-99.99,,,0.00,Acu-Link.com,2013-01-20 12:16:00,
2013-01-20 07:31:00,36.3,36.0,29.99,WSW,247,0.0,-999.0,99,-99.99,,,0.00,Acu-Link.com,2013-01-20 12:31:00,
2013-01-20 07:46:00,36.1,35.8,29.99,ENE,67,0.0,-999.0,99,-99.99,,,0.00,Acu-Link.com,2013-01-20 12:46:00,
2013-01-20 08:01:00,36.3,36.0,29.98,NW,315,0.0,-999.0,99,-99.99,,,0.00,Acu-Link.com,2013-01-20 13:01:00,
2013-01-20 08:16:00,36.3,36.0,29.99,ESE,112,0.0,-999.0,99,-99.99,,,0.00,Acu-Link.com,2013-01-20 13:16:00,
2013-01-20 08:32:00,36.7,36.4,29.98,SE,135,0.0,-999.0,99,-99.99,,,0.00,Acu-Link.com,2013-01-20 13:32:00,
2013-01-20 08:47:00,39.6,39.1,29.98,SSW,202,0.0,-999.0,98,-99.99,,,0.00,Acu-Link.com,2013-01-20 13:47:00,
2013-01-20 09:02:00,40.5,40.2,29.99,SW,225,0.0,-999.0,99,-99.99,,,0.00,Acu-Link.com,2013-01-20 14:02:00,
2013-01-20 09:17:00,41.5,39.6,29.99,SW,225,0.0,-999.0,93,-99.99,,,0.00,Acu-Link.com,2013-01-20 14:17:00,
2013-01-20 09:32:00,43.9,37.5,29.98,WSW,247,2.2,-999.0,78,-99.99,,,0.00,Acu-Link.com,2013-01-20 14:32:00,
2013-01-20 09:47:00,47.7,37.7,29.99,South,180,2.2,-999.0,68,-99.99,,,0.00,Acu-Link.com,2013-01-20 14:47:00,
2013-01-20 10:02:00,49.1,36.7,29.99,West,270,3.7,-999.0,62,-99.99,,,0.00,Acu-Link.com,2013-01-20 15:02:00,
2013-01-20 10:17:00,51.1,36.8,29.98,South,180,1.7,-999.0,58,-99.99,,,0.00,Acu-Link.com,2013-01-20 15:17:00,
2013-01-20 10:32:00,52.0,36.8,29.98,WSW,247,3.2,-999.0,56,-99.99,,,0.00,Acu-Link.com,2013-01-20 15:32:00,
2013-01-20 10:47:00,54.3,37.1,29.97,West,270,1.7,-999.0,52,-99.99,,,0.00,Acu-Link.com,2013-01-20 15:47:00,
2013-01-20 11:03:00,56.3,36.9,29.97,West,270,3.2,-999.0,48,-99.99,,,0.00,Acu-Link.com,2013-01-20 16:03:00,
2013-01-20 11:18:00,56.5,34.3,29.96,NW,315,2.2,-999.0,43,-99.99,,,0.00,Acu-Link.com,2013-01-20 16:18:00,
2013-01-20 11:33:00,57.2,35.5,29.96,SE,135,1.1,-999.0,44,-99.99,,,0.00,Acu-Link.com,2013-01-20 16:33:00,
2013-01-20 11:48:00,57.9,35.0,29.94,WSW,247,3.7,-999.0,42,-99.99,,,0.00,Acu-Link.com,2013-01-20 16:48:00,
2013-01-20 12:03:00,58.5,33.6,29.93,WSW,247,2.2,-999.0,39,-99.99,,,0.00,Acu-Link.com,2013-01-20 17:03:00,
2013-01-20 12:18:00,60.1,33.7,29.92,SW,225,4.7,-999.0,37,-99.99,,,0.00,Acu-Link.com,2013-01-20 17:18:00,
2013-01-20 12:33:00,61.3,34.8,29.92,WSW,247,2.7,-999.0,37,-99.99,,,0.00,Acu-Link.com,2013-01-20 17:33:00,
2013-01-20 12:48:00,61.7,34.5,29.91,West,270,2.7,-999.0,36,-99.99,,,0.00,Acu-Link.com,2013-01-20 17:48:00,
2013-01-20 13:03:00,62.1,35.5,29.90,West,270,1.7,-999.0,37,-99.99,,,0.00,Acu-Link.com,2013-01-20 18:03:00,
2013-01-20 13:19:00,62.6,36.0,29.88,West,270,3.2,-999.0,37,-99.99,,,0.00,Acu-Link.com,2013-01-20 18:19:00,
2013-01-20 13:34:00,63.3,35.9,29.88,WSW,247,3.7,-999.0,36,-99.99,,,0.00,Acu-Link.com,2013-01-20 18:34:00,
2013-01-20 13:49:00,63.7,36.2,29.87,WSW,247,1.1,-999.0,36,-99.99,,,0.00,Acu-Link.com,2013-01-20 18:49:00,
2013-01-20 14:04:00,66.2,37.0,29.87,WSW,247,1.7,-999.0,34,-99.99,,,0.00,Acu-Link.com,2013-01-20 19:04:00,
2013-01-20 14:19:00,64.2,37.4,29.86,West,270,2.2,-999.0,37,-99.99,,,0.00,Acu-Link.com,2013-01-20 19:19:00,
2013-01-20 14:34:00,64.2,36.7,29.86,East,90,2.7,-999.0,36,-99.99,,,0.00,Acu-Link.com,2013-01-20 19:34:00,
2013-01-20 14:50:00,65.3,36.9,29.85,SW,225,3.2,-999.0,35,-99.99,,,0.00,Acu-Link.com,2013-01-20 19:50:00,
2013-01-20 15:05:00,65.8,36.6,29.85,SW,225,3.2,-999.0,34,-99.99,,,0.00,Acu-Link.com,2013-01-20 20:05:00,
2013-01-20 15:20:00,65.5,37.8,29.85,WSW,247,3.2,-999.0,36,-99.99,,,0.00,Acu-Link.com,2013-01-20 20:20:00,
2013-01-20 15:35:00,64.4,36.2,29.85,West,270,2.7,-999.0,35,-99.99,,,0.00,Acu-Link.com,2013-01-20 20:35:00,
2013-01-20 15:50:00,65.5,37.1,29.85,NE,45,1.7,-999.0,35,-99.99,,,0.00,Acu-Link.com,2013-01-20 20:50:00,
2013-01-20 16:05:00,64.4,36.9,29.86,NE,45,3.2,-999.0,36,-99.99,,,0.00,Acu-Link.com,2013-01-20 21:05:00,
2013-01-20 16:20:00,63.7,38.3,29.85,WSW,247,1.7,-999.0,39,-99.99,,,0.00,Acu-Link.com,2013-01-20 21:20:00,
2013-01-20 16:35:00,63.1,37.7,29.85,West,270,1.1,-999.0,39,-99.99,,,0.00,Acu-Link.com,2013-01-20 21:35:00,
2013-01-20 16:50:00,63.0,37.7,29.85,WNW,292,1.7,-999.0,39,-99.99,,,0.00,Acu-Link.com,2013-01-20 21:50:00,
2013-01-20 17:06:00,61.9,38.6,29.85,West,270,0.0,-999.0,42,-99.99,,,0.00,Acu-Link.com,2013-01-20 22:06:00,
2013-01-20 17:21:00,60.8,39.3,29.85,NE,45,1.1,-999.0,45,-99.99,,,0.00,Acu-Link.com,2013-01-20 22:21:00,
2013-01-20 17:36:00,59.4,39.2,29.86,NE,45,1.7,-999.0,47,-99.99,,,0.00,Acu-Link.com,2013-01-20 22:36:00,
2013-01-20 17:51:00,58.1,39.0,29.85,ESE,112,0.0,-999.0,49,-99.99,,,0.00,Acu-Link.com,2013-01-20 22:51:00,
2013-01-20 18:21:00,55.0,38.2,29.86,East,90,0.0,-999.0,53,-99.99,,,0.00,Acu-Link.com,2013-01-20 23:21:00,
2013-01-20 19:06:00,51.3,37.5,29.86,NE,45,0.0,-999.0,59,-99.99,,,0.00,Acu-Link.com,2013-01-21 00:06:00,
2013-01-20 19:21:00,50.4,37.5,29.86,East,90,0.0,-999.0,61,-99.99,,,0.00,Acu-Link.com,2013-01-21 00:21:00,
2013-01-20 19:37:00,49.1,37.5,29.87,NE,45,0.0,-999.0,64,-99.99,,,0.00,Acu-Link.com,2013-01-21 00:37:00,
2013-01-20 19:52:00,48.4,37.6,29.86,East,90,0.0,-999.0,66,-99.99,,,0.00,Acu-Link.com,2013-01-21 00:52:00,
2013-01-20 20:07:00,47.5,37.8,29.87,NE,45,0.0,-999.0,69,-99.99,,,0.00,Acu-Link.com,2013-01-21 01:07:00,
2013-01-20 20:37:00,46.0,37.5,29.88,NE,45,0.0,-999.0,72,-99.99,,,0.00,Acu-Link.com,2013-01-21 01:37:00,
2013-01-20 20:52:00,45.9,38.1,29.87,ENE,67,0.0,-999.0,74,-99.99,,,0.00,Acu-Link.com,2013-01-21 01:52:00,
2013-01-20 21:07:00,45.3,37.5,29.88,WSW,247,0.0,-999.0,74,-99.99,,,0.00,Acu-Link.com,2013-01-21 02:07:00,
2013-01-20 21:22:00,45.0,37.2,29.88,SW,225,0.0,-999.0,74,-99.99,,,0.00,Acu-Link.com,2013-01-21 02:22:00,
2013-01-20 21:37:00,44.4,37.3,29.89,ENE,67,0.0,-999.0,76,-99.99,,,0.00,Acu-Link.com,2013-01-21 02:37:00,
2013-01-20 21:53:00,44.4,37.3,29.89,SE,135,0.0,-999.0,76,-99.99,,,0.00,Acu-Link.com,2013-01-21 02:53:00,
2013-01-20 22:08:00,44.2,37.5,29.89,NE,45,0.0,-999.0,77,-99.99,,,0.00,Acu-Link.com,2013-01-21 03:08:00,
2013-01-20 22:23:00,43.7,37.6,29.88,East,90,0.0,-999.0,79,-99.99,,,0.00,Acu-Link.com,2013-01-21 03:23:00,
2013-01-20 22:38:00,43.5,37.7,29.88,ENE,67,0.0,-999.0,80,-99.99,,,0.00,Acu-Link.com,2013-01-21 03:38:00,
2013-01-20 22:53:00,43.3,37.9,29.88,NE,45,0.0,-999.0,81,-99.99,,,0.00,Acu-Link.com,2013-01-21 03:53:00,
2013-01-20 23:08:00,43.2,37.5,29.88,SW,225,0.0,-999.0,80,-99.99,,,0.00,Acu-Link.com,2013-01-21 04:08:00,
2013-01-20 23:23:00,42.6,37.2,29.88,ENE,67,0.0,-999.0,81,-99.99,,,0.00,Acu-Link.com,2013-01-21 04:23:00,
2013-01-20 23:38:00,42.3,37.2,29.88,ESE,112,0.0,-999.0,82,-99.99,,,0.00,Acu-Link.com,2013-01-21 04:38:00,
2013-01-20 23:53:00,42.1,37.3,29.87,West,270,0.0,-999.0,83,-99.99,,,0.00,Acu-Link.com,2013-01-21 04:53:00,